Franklin Reinauer — WCW8832 — position and weather

sailwx.info

Track history (hours):
 
Tides and Currents Weather Stations Pressure Air Temp Water Temp Dewpoint Dewpoint Depression Visibility Wind Speed Wind Dir Waves Ship Positions

Franklin Reinauer

Owner: REINAUER TRANSPORTATION CO.LLC., STATEN ISLAND, NY. More information available from US FCC via Universal Licensing System and Coast Guard Vessel Documentation Center.

Last reported at 2018-Jun-25 11:45 UTC. Time now 2018-Jun-25 15:54 UTC.
Position N 40°38' W 074°08'.

Length 24 m; draft 4 m.

Type: Tug. MMSI: 366725230.

Date/timePositionNaut miles runAvg speedWind from/ knotsBaromVisibWave heightAir tempDewpointWater temp
2018-Jun-25 11:45N 40°38' W 074°08'2 7.3
2018-Jun-25 11:31N 40°39' W 074°10'3 0.2
2018-Jun-25 00:32N 40°37' W 074°12'1 8.6
2018-Jun-25 00:26N 40°38' W 074°12'3 7.0
2018-Jun-25 00:01N 40°39' W 074°08'1 1.1
2018-Jun-24 23:30N 40°38' W 074°08'0 0.0
2018-Jun-24 23:00N 40°38' W 074°08'0 0.0
2018-Jun-24 22:27N 40°38' W 074°08'0 0.0
2018-Jun-24 22:01N 40°38' W 074°08'0 0.0
2018-Jun-24 21:30N 40°38' W 074°08'0 0.0
2018-Jun-24 20:57N 40°38' W 074°08'0 0.0
2018-Jun-24 20:30N 40°38' W 074°08'0 0.0
2018-Jun-24 20:01N 40°38' W 074°08'0 0.0
2018-Jun-24 19:30N 40°38' W 074°08'0 0.0
2018-Jun-24 18:58N 40°38' W 074°08'0 0.0
2018-Jun-24 18:30N 40°38' W 074°08'0 0.0
2018-Jun-24 17:33N 40°38' W 074°08'0 0.0
2018-Jun-24 17:31N 40°38' W 074°08'0 0.0
2018-Jun-24 16:58N 40°38' W 074°08'0 0.0
2018-Jun-24 16:26N 40°38' W 074°08'0 0.0
2018-Jun-24 16:00N 40°38' W 074°08'0 0.0
2018-Jun-24 15:31N 40°38' W 074°08'0 0.0
2018-Jun-24 14:49N 40°38' W 074°08'0 0.0
2018-Jun-24 14:31N 40°38' W 074°08'0 0.0
2018-Jun-24 13:24N 40°38' W 074°08'0 0.0
2018-Jun-24 13:00N 40°38' W 074°08'2 4.0
2018-Jun-24 12:30N 40°39' W 074°05'2 4.8
2018-Jun-24 12:01N 40°40' W 074°02'1 1.9
2018-Jun-24 11:31N 40°39' W 074°03'1 1.1
2018-Jun-24 11:01N 40°39' W 074°03'1 2.3
2018-Jun-24 10:31N 40°39' W 074°04'3 5.1
2018-Jun-24 10:01N 40°38' W 074°08'0 0.0
2018-Jun-24 09:30N 40°38' W 074°08'0 0.0
2018-Jun-24 08:58N 40°38' W 074°08'0 0.0
2018-Jun-24 08:30N 40°38' W 074°08'0 0.0
2018-Jun-24 07:56N 40°38' W 074°08'0 0.0
2018-Jun-24 07:27N 40°38' W 074°08'0 0.0
2018-Jun-24 07:00N 40°38' W 074°08'0 0.0
2018-Jun-24 06:30N 40°38' W 074°08'0 0.0
2018-Jun-24 05:58N 40°38' W 074°08'0 0.0
2018-Jun-24 05:31N 40°38' W 074°08'0 0.0
2018-Jun-24 05:00N 40°38' W 074°08'0 0.0
2018-Jun-24 04:30N 40°38' W 074°08'4 7.2
2018-Jun-24 04:01N 40°39' W 074°03'4 7.1
2018-Jun-24 03:31N 40°38' W 074°08'0 0.0
2018-Jun-24 02:57N 40°38' W 074°08'0 0.0
2018-Jun-24 02:30N 40°38' W 074°08'0 0.0
2018-Jun-24 01:57N 40°38' W 074°08'0 0.0
2018-Jun-24 01:28N 40°38' W 074°08'0 0.0
2018-Jun-24 01:00N 40°38' W 074°08'0 0.0
2018-Jun-24 00:31N 40°38' W 074°08'0 0.0
2018-Jun-23 23:59N 40°38' W 074°08'0 0.0
2018-Jun-23 23:30N 40°38' W 074°08'0 0.3
2018-Jun-23 22:59N 40°39' W 074°08'0 0.5
2018-Jun-23 22:27N 40°39' W 074°07'0 0.6
2018-Jun-23 21:43N 40°38' W 074°08'0 0.3
2018-Jun-23 21:30N 40°39' W 074°08'0 0.1
2018-Jun-23 20:59N 40°38' W 074°08'0 0.1
2018-Jun-23 20:30N 40°38' W 074°08'0 0.0
2018-Jun-23 20:01N 40°38' W 074°08'0 0.0
2018-Jun-23 19:31N 40°38' W 074°08'0 0.0
2018-Jun-23 19:00N 40°38' W 074°08'0 0.0
2018-Jun-23 18:31N 40°38' W 074°08'2 4.7
2018-Jun-23 18:01N 40°39' W 074°05'1 1.0
2018-Jun-23 17:30N 40°39' W 074°05'2 3.2
2018-Jun-23 16:55N 40°38' W 074°08'0 1.2
2018-Jun-23 16:31N 40°39' W 074°08'3 0.5
2018-Jun-23 10:04N 40°38' W 074°12'1 7.7
2018-Jun-23 09:59N 40°38' W 074°12'3 6.5
2018-Jun-23 09:31N 40°39' W 074°08'0 0.0
2018-Jun-23 08:04N 40°38' W 074°08'0 0.0
2018-Jun-23 06:11N 40°38' W 074°08'0 0.0
2018-Jun-23 03:46N 40°38' W 074°08'0 0.8
2018-Jun-23 03:30N 40°39' W 074°08'2 4.1
2018-Jun-23 03:01N 40°39' W 074°05'2 0.9
2018-Jun-23 00:39N 40°39' W 074°08'1 8.2
2018-Jun-23 00:29N 40°39' W 074°09'2 3.7
2018-Jun-23 00:00N 40°38' W 074°12'0 0.0
2018-Jun-22 23:29N 40°38' W 074°12'0 0.0
2018-Jun-22 22:59N 40°38' W 074°12'0 0.0
2018-Jun-22 22:29N 40°38' W 074°12'0 0.0
2018-Jun-22 21:58N 40°38' W 074°12'0 0.0
2018-Jun-22 21:30N 40°38' W 074°12'3 5.9
2018-Jun-22 20:59N 40°39' W 074°08'0 0.0
2018-Jun-22 18:10N 40°38' W 074°08'0 0.0
2018-Jun-22 17:48N 40°38' W 074°08'0 0.0
2018-Jun-22 17:27N 40°38' W 074°08'0 0.0
2018-Jun-22 16:37N 40°38' W 074°08'0 0.0
2018-Jun-22 15:26N 40°38' W 074°08'0 0.0
2018-Jun-22 14:38N 40°38' W 074°08'1 5.4
2018-Jun-22 14:30N 40°39' W 074°07'4 8.5
2018-Jun-22 14:01N 40°40' W 074°02'1 1.3
2018-Jun-22 13:31N 40°40' W 074°01'0 0.0
2018-Jun-22 13:01N 40°40' W 074°01'0 0.0
2018-Jun-22 12:31N 40°40' W 074°01'0 0.0
2018-Jun-22 12:01N 40°40' W 074°01'0 0.0
2018-Jun-22 11:31N 40°40' W 074°01'0 0.0
2018-Jun-22 11:01N 40°40' W 074°01'0 0.0
2018-Jun-22 10:31N 40°40' W 074°01'0 0.0
2018-Jun-22 10:00N 40°40' W 074°01'0 0.0
2018-Jun-22 09:31N 40°40' W 074°01'0 0.0
2018-Jun-22 09:01N 40°40' W 074°01'0 0.0
2018-Jun-22 08:31N 40°40' W 074°01'0 0.0
2018-Jun-22 08:01N 40°40' W 074°01'0 0.1
2018-Jun-22 07:31N 40°40' W 074°01'0 0.3
2018-Jun-22 07:01N 40°40' W 074°01'0 0.0
2018-Jun-22 06:30N 40°40' W 074°01'0 0.0
2018-Jun-22 06:01N 40°40' W 074°01'0 0.0
2018-Jun-22 05:30N 40°40' W 074°01'2 4.7
2018-Jun-22 05:00N 40°42' W 073°60'3 6.9
2018-Jun-22 04:31N 40°45' W 073°58'2 0.1
2018-Jun-21 02:16N 40°47' W 073°56'1 4.2
2018-Jun-21 01:55N 40°46' W 073°57'1 3.3
2018-Jun-21 01:30N 40°45' W 073°58'2 4.1
2018-Jun-21 01:00N 40°43' W 073°58'2 3.8
2018-Jun-21 00:30N 40°42' W 074°01'1 2.9
2018-Jun-21 00:00N 40°43' W 074°02'0 0.5
2018-Jun-20 23:30N 40°43' W 074°01'2 4.8
2018-Jun-20 23:00N 40°41' W 074°02'3 5.1
2018-Jun-20 22:30N 40°39' W 074°05'3 6.9
2018-Jun-20 22:00N 40°39' W 074°09'3 0.2
2018-Jun-20 07:34N 40°37' W 074°12'1 7.8
2018-Jun-20 07:26N 40°38' W 074°12'3 7.4
2018-Jun-20 07:00N 40°39' W 074°08'4 7.3
2018-Jun-20 06:30N 40°40' W 074°03'2 3.6
2018-Jun-20 06:00N 40°40' W 074°01'0 0.0
2018-Jun-20 05:30N 40°40' W 074°01'0 0.0
2018-Jun-20 05:00N 40°40' W 074°01'0 0.0
2018-Jun-20 04:30N 40°40' W 074°01'0 0.0
2018-Jun-20 04:00N 40°40' W 074°01'0 0.0
2018-Jun-20 03:30N 40°40' W 074°01'0 0.0
2018-Jun-20 03:00N 40°40' W 074°01'0 0.1
2018-Jun-20 02:30N 40°40' W 074°01'0 0.1
2018-Jun-20 02:00N 40°40' W 074°01'2 4.0
2018-Jun-20 01:30N 40°40' W 074°04'3 5.3
2018-Jun-20 00:53N 40°38' W 074°08'1 3.7
2018-Jun-20 00:30N 40°39' W 074°09'1 0.4
2018-Jun-19 21:28N 40°39' W 074°11'3 6.2
2018-Jun-19 20:59N 40°39' W 074°07'4 8.5
2018-Jun-19 20:31N 40°40' W 074°02'1 2.2
2018-Jun-19 20:00N 40°40' W 074°01'0 0.0
2018-Jun-19 19:30N 40°40' W 074°01'0 0.0
2018-Jun-19 19:00N 40°40' W 074°01'0 0.0
2018-Jun-19 18:30N 40°40' W 074°01'0 0.0
2018-Jun-19 18:00N 40°40' W 074°01'0 0.0
2018-Jun-19 17:30N 40°40' W 074°01'0 0.0
2018-Jun-19 17:00N 40°40' W 074°01'0 0.0
2018-Jun-19 16:30N 40°40' W 074°01'0 0.0
2018-Jun-19 16:00N 40°40' W 074°01'0 0.0
2018-Jun-19 15:30N 40°40' W 074°01'0 0.0
2018-Jun-19 15:00N 40°40' W 074°01'0 0.0
2018-Jun-19 14:30N 40°40' W 074°01'0 0.0
2018-Jun-19 14:00N 40°40' W 074°01'0 0.0
2018-Jun-19 13:30N 40°40' W 074°01'0 0.0
2018-Jun-19 13:00N 40°40' W 074°01'0 0.0
2018-Jun-19 12:30N 40°40' W 074°01'0 0.0
2018-Jun-19 12:00N 40°40' W 074°01'0 0.0
2018-Jun-19 11:30N 40°40' W 074°01'0 0.0
2018-Jun-19 11:00N 40°40' W 074°01'0 0.0
2018-Jun-19 10:30N 40°40' W 074°01'0 0.0
2018-Jun-19 10:00N 40°40' W 074°01'0 0.0
2018-Jun-19 09:30N 40°40' W 074°01'0 0.0
2018-Jun-19 09:00N 40°40' W 074°01'0 0.0
2018-Jun-19 08:30N 40°40' W 074°01'0 0.0
2018-Jun-19 08:00N 40°40' W 074°01'0 0.0
2018-Jun-19 07:30N 40°40' W 074°01'0 0.0
2018-Jun-19 07:00N 40°40' W 074°01'0 0.0
2018-Jun-19 06:30N 40°40' W 074°01'0 0.0
2018-Jun-19 06:00N 40°40' W 074°01'0 0.0
2018-Jun-19 05:29N 40°40' W 074°01'0 0.0
2018-Jun-19 05:00N 40°40' W 074°01'0 0.0
2018-Jun-19 04:30N 40°40' W 074°01'0 0.0
2018-Jun-19 04:00N 40°40' W 074°01'0 0.0
2018-Jun-19 03:29N 40°40' W 074°01'0 0.0
2018-Jun-19 02:59N 40°40' W 074°01'0 0.0
2018-Jun-19 02:29N 40°40' W 074°01'0 0.0
2018-Jun-19 01:59N 40°40' W 074°01'0 0.0
2018-Jun-19 01:29N 40°40' W 074°01'0 0.0
2018-Jun-19 00:59N 40°40' W 074°01'0 0.0
2018-Jun-19 00:29N 40°40' W 074°01'0 0.0
2018-Jun-18 23:59N 40°40' W 074°01'0 0.0
2018-Jun-18 23:23N 40°40' W 074°01'0 0.0
2018-Jun-18 22:59N 40°40' W 074°01'0 0.0
2018-Jun-18 22:29N 40°40' W 074°01'0 0.0
2018-Jun-18 21:59N 40°40' W 074°01'0 0.0
2018-Jun-18 21:29N 40°40' W 074°01'0 0.2
2018-Jun-18 20:58N 40°40' W 074°01'0 0.1
2018-Jun-18 20:28N 40°40' W 074°01'0 0.3
2018-Jun-18 20:00N 40°40' W 074°01'0 0.0
2018-Jun-18 19:30N 40°40' W 074°01'0 0.2
2018-Jun-18 18:59N 40°40' W 074°01'0 0.1
2018-Jun-18 18:29N 40°40' W 074°01'0 0.1
2018-Jun-18 17:58N 40°40' W 074°01'0 0.0
2018-Jun-18 17:28N 40°40' W 074°01'2 5.2
2018-Jun-18 17:00N 40°40' W 074°04'3 0.6
2018-Jun-18 11:43N 40°38' W 074°08'0 1.5
2018-Jun-18 11:29N 40°39' W 074°07'0 0.8
2018-Jun-18 11:00N 40°38' W 074°08'0 0.0
2018-Jun-18 10:30N 40°38' W 074°08'1 1.7
2018-Jun-18 10:00N 40°39' W 074°07'2 4.5
2018-Jun-18 09:30N 40°39' W 074°04'2 3.2
2018-Jun-18 09:00N 40°39' W 074°06'0 0.0
2018-Jun-17 16:18N 40°39' W 074°06'2 5.7
2018-Jun-17 16:00N 40°40' W 074°04'1 0.9
2018-Jun-17 14:41N 40°40' W 074°02'0 0.1
2018-Jun-17 14:29N 40°40' W 074°02'0 0.0
2018-Jun-17 13:59N 40°40' W 074°02'0 0.0
2018-Jun-17 13:29N 40°40' W 074°02'0 0.1
2018-Jun-17 12:59N 40°40' W 074°02'0 0.2
2018-Jun-17 12:28N 40°40' W 074°02'0 0.2
2018-Jun-17 11:58N 40°40' W 074°02'0 0.0
2018-Jun-17 11:28N 40°40' W 074°02'0 0.0
2018-Jun-17 10:58N 40°40' W 074°02'0 0.0
2018-Jun-17 10:28N 40°40' W 074°02'0 0.0
2018-Jun-17 09:58N 40°40' W 074°02'1 2.0
2018-Jun-17 09:30N 40°40' W 074°01'0 0.0
2018-Jun-17 09:00N 40°40' W 074°01'0 0.0
2018-Jun-17 08:30N 40°40' W 074°01'0 0.0
2018-Jun-17 08:00N 40°40' W 074°01'0 0.0
2018-Jun-17 07:30N 40°40' W 074°01'1 1.1
2018-Jun-17 07:00N 40°40' W 074°02'1 1.1
2018-Jun-17 06:30N 40°40' W 074°01'1 1.4
2018-Jun-17 06:00N 40°40' W 074°02'5 9.0
2018-Jun-17 05:30N 40°39' W 074°07'4 0.2
2018-Jun-16 10:18N 40°37' W 074°12'2 7.2
2018-Jun-16 10:00N 40°39' W 074°11'4 7.2
2018-Jun-16 09:29N 40°39' W 074°06'2 3.8
2018-Jun-16 08:59N 40°38' W 074°04'1 3.1
2018-Jun-16 08:30N 40°39' W 074°03'2 2.8
2018-Jun-16 07:58N 40°40' W 074°01'0 0.0
2018-Jun-16 07:28N 40°40' W 074°01'0 0.0
2018-Jun-16 06:58N 40°40' W 074°01'0 0.0
2018-Jun-16 06:28N 40°40' W 074°01'0 0.0
2018-Jun-16 05:58N 40°40' W 074°01'0 0.0
2018-Jun-16 05:25N 40°40' W 074°01'0 0.0
2018-Jun-16 04:58N 40°40' W 074°01'0 0.0
2018-Jun-16 04:28N 40°40' W 074°01'0 0.0
2018-Jun-16 03:58N 40°40' W 074°01'0 0.0
2018-Jun-16 03:28N 40°40' W 074°01'0 0.0
2018-Jun-16 03:01N 40°40' W 074°01'0 0.0
2018-Jun-16 02:31N 40°40' W 074°01'0 0.0
2018-Jun-16 02:00N 40°40' W 074°01'0 0.0
2018-Jun-16 01:30N 40°40' W 074°01'0 0.0
2018-Jun-16 01:00N 40°40' W 074°01'0 0.0
2018-Jun-16 00:30N 40°40' W 074°01'0 0.0
2018-Jun-16 00:00N 40°40' W 074°01'0 0.0
2018-Jun-15 23:30N 40°40' W 074°01'0 0.5
2018-Jun-15 23:00N 40°40' W 074°01'3 5.8
2018-Jun-15 22:31N 40°38' W 074°03'0 0.4
2018-Jun-15 22:00N 40°38' W 074°04'3 6.1
2018-Jun-15 21:30N 40°40' W 074°02'1 1.0
2018-Jun-15 20:59N 40°40' W 074°01'0 0.1
2018-Jun-15 20:29N 40°40' W 074°01'0 0.1
2018-Jun-15 19:58N 40°40' W 074°01'0 0.0
2018-Jun-15 19:28N 40°40' W 074°01'0 0.0
2018-Jun-15 18:58N 40°40' W 074°01'0 0.0
2018-Jun-15 18:28N 40°40' W 074°01'0 0.0
2018-Jun-15 17:58N 40°40' W 074°01'0 0.0
2018-Jun-15 17:28N 40°40' W 074°01'0 0.0
2018-Jun-15 16:58N 40°40' W 074°01'0 0.0
2018-Jun-15 16:31N 40°40' W 074°01'0 0.0
2018-Jun-15 16:00N 40°40' W 074°01'0 0.0
2018-Jun-15 15:30N 40°40' W 074°01'0 0.1
2018-Jun-15 15:00N 40°40' W 074°01'3 5.8
2018-Jun-15 14:30N 40°39' W 074°05'1 3.0
2018-Jun-15 14:00N 40°39' W 074°07'0 0.1
2018-Jun-15 13:30N 40°39' W 074°07'1 1.2
2018-Jun-15 12:39N 40°38' W 074°08'0 0.0
2018-Jun-15 12:30N 40°38' W 074°08'  
Track history (hours):
 
Tides and Currents Weather Stations Pressure Air Temp Water Temp Dewpoint Dewpoint Depression Visibility Wind Speed Wind Dir Waves Ship Positions

Franklin Reinauer

Owner: REINAUER TRANSPORTATION CO.LLC., STATEN ISLAND, NY. More information available from US FCC via Universal Licensing System and Coast Guard Vessel Documentation Center.

Last reported at 2018-Jun-25 11:45 UTC. Time now 2018-Jun-25 15:54 UTC.
Position N 40°38' W 074°08'.

Length 24 m; draft 4 m.

Type: Tug. MMSI: 366725230.

Date/timePositionNaut miles runAvg speedWind from/ knotsBaromVisibWave heightAir tempDewpointWater temp
2018-Jun-25 11:45N 40°38' W 074°08'2 7.3
2018-Jun-25 11:31N 40°39' W 074°10'3 0.2
2018-Jun-25 00:32N 40°37' W 074°12'1 8.6
2018-Jun-25 00:26N 40°38' W 074°12'3 7.0
2018-Jun-25 00:01N 40°39' W 074°08'1 1.1
2018-Jun-24 23:30N 40°38' W 074°08'0 0.0
2018-Jun-24 23:00N 40°38' W 074°08'0 0.0
2018-Jun-24 22:27N 40°38' W 074°08'0 0.0
2018-Jun-24 22:01N 40°38' W 074°08'0 0.0
2018-Jun-24 21:30N 40°38' W 074°08'0 0.0
2018-Jun-24 20:57N 40°38' W 074°08'0 0.0
2018-Jun-24 20:30N 40°38' W 074°08'0 0.0
2018-Jun-24 20:01N 40°38' W 074°08'0 0.0
2018-Jun-24 19:30N 40°38' W 074°08'0 0.0
2018-Jun-24 18:58N 40°38' W 074°08'0 0.0
2018-Jun-24 18:30N 40°38' W 074°08'0 0.0
2018-Jun-24 17:33N 40°38' W 074°08'0 0.0
2018-Jun-24 17:31N 40°38' W 074°08'0 0.0
2018-Jun-24 16:58N 40°38' W 074°08'0 0.0
2018-Jun-24 16:26N 40°38' W 074°08'0 0.0
2018-Jun-24 16:00N 40°38' W 074°08'0 0.0
2018-Jun-24 15:31N 40°38' W 074°08'0 0.0
2018-Jun-24 14:49N 40°38' W 074°08'0 0.0
2018-Jun-24 14:31N 40°38' W 074°08'0 0.0
2018-Jun-24 13:24N 40°38' W 074°08'0 0.0
2018-Jun-24 13:00N 40°38' W 074°08'2 4.0
2018-Jun-24 12:30N 40°39' W 074°05'2 4.8
2018-Jun-24 12:01N 40°40' W 074°02'1 1.9
2018-Jun-24 11:31N 40°39' W 074°03'1 1.1
2018-Jun-24 11:01N 40°39' W 074°03'1 2.3
2018-Jun-24 10:31N 40°39' W 074°04'3 5.1
2018-Jun-24 10:01N 40°38' W 074°08'0 0.0
2018-Jun-24 09:30N 40°38' W 074°08'0 0.0
2018-Jun-24 08:58N 40°38' W 074°08'0 0.0
2018-Jun-24 08:30N 40°38' W 074°08'0 0.0
2018-Jun-24 07:56N 40°38' W 074°08'0 0.0
2018-Jun-24 07:27N 40°38' W 074°08'0 0.0
2018-Jun-24 07:00N 40°38' W 074°08'0 0.0
2018-Jun-24 06:30N 40°38' W 074°08'0 0.0
2018-Jun-24 05:58N 40°38' W 074°08'0 0.0
2018-Jun-24 05:31N 40°38' W 074°08'0 0.0
2018-Jun-24 05:00N 40°38' W 074°08'0 0.0
2018-Jun-24 04:30N 40°38' W 074°08'4 7.2
2018-Jun-24 04:01N 40°39' W 074°03'4 7.1
2018-Jun-24 03:31N 40°38' W 074°08'0 0.0
2018-Jun-24 02:57N 40°38' W 074°08'0 0.0
2018-Jun-24 02:30N 40°38' W 074°08'0 0.0
2018-Jun-24 01:57N 40°38' W 074°08'0 0.0
2018-Jun-24 01:28N 40°38' W 074°08'0 0.0
2018-Jun-24 01:00N 40°38' W 074°08'0 0.0
2018-Jun-24 00:31N 40°38' W 074°08'0 0.0
2018-Jun-23 23:59N 40°38' W 074°08'0 0.0
2018-Jun-23 23:30N 40°38' W 074°08'0 0.3
2018-Jun-23 22:59N 40°39' W 074°08'0 0.5
2018-Jun-23 22:27N 40°39' W 074°07'0 0.6
2018-Jun-23 21:43N 40°38' W 074°08'0 0.3
2018-Jun-23 21:30N 40°39' W 074°08'0 0.1
2018-Jun-23 20:59N 40°38' W 074°08'0 0.1
2018-Jun-23 20:30N 40°38' W 074°08'0 0.0
2018-Jun-23 20:01N 40°38' W 074°08'0 0.0
2018-Jun-23 19:31N 40°38' W 074°08'0 0.0
2018-Jun-23 19:00N 40°38' W 074°08'0 0.0
2018-Jun-23 18:31N 40°38' W 074°08'2 4.7
2018-Jun-23 18:01N 40°39' W 074°05'1 1.0
2018-Jun-23 17:30N 40°39' W 074°05'2 3.2
2018-Jun-23 16:55N 40°38' W 074°08'0 1.2
2018-Jun-23 16:31N 40°39' W 074°08'3 0.5
2018-Jun-23 10:04N 40°38' W 074°12'1 7.7
2018-Jun-23 09:59N 40°38' W 074°12'3 6.5
2018-Jun-23 09:31N 40°39' W 074°08'0 0.0
2018-Jun-23 08:04N 40°38' W 074°08'0 0.0
2018-Jun-23 06:11N 40°38' W 074°08'0 0.0
2018-Jun-23 03:46N 40°38' W 074°08'0 0.8
2018-Jun-23 03:30N 40°39' W 074°08'2 4.1
2018-Jun-23 03:01N 40°39' W 074°05'2 0.9
2018-Jun-23 00:39N 40°39' W 074°08'1 8.2
2018-Jun-23 00:29N 40°39' W 074°09'2 3.7
2018-Jun-23 00:00N 40°38' W 074°12'0 0.0
2018-Jun-22 23:29N 40°38' W 074°12'0 0.0
2018-Jun-22 22:59N 40°38' W 074°12'0 0.0
2018-Jun-22 22:29N 40°38' W 074°12'0 0.0
2018-Jun-22 21:58N 40°38' W 074°12'0 0.0
2018-Jun-22 21:30N 40°38' W 074°12'3 5.9
2018-Jun-22 20:59N 40°39' W 074°08'0 0.0
2018-Jun-22 18:10N 40°38' W 074°08'0 0.0
2018-Jun-22 17:48N 40°38' W 074°08'0 0.0
2018-Jun-22 17:27N 40°38' W 074°08'0 0.0
2018-Jun-22 16:37N 40°38' W 074°08'0 0.0
2018-Jun-22 15:26N 40°38' W 074°08'0 0.0
2018-Jun-22 14:38N 40°38' W 074°08'1 5.4
2018-Jun-22 14:30N 40°39' W 074°07'4 8.5
2018-Jun-22 14:01N 40°40' W 074°02'1 1.3
2018-Jun-22 13:31N 40°40' W 074°01'0 0.0
2018-Jun-22 13:01N 40°40' W 074°01'0 0.0
2018-Jun-22 12:31N 40°40' W 074°01'0 0.0
2018-Jun-22 12:01N 40°40' W 074°01'0 0.0
2018-Jun-22 11:31N 40°40' W 074°01'0 0.0
2018-Jun-22 11:01N 40°40' W 074°01'0 0.0
2018-Jun-22 10:31N 40°40' W 074°01'0 0.0
2018-Jun-22 10:00N 40°40' W 074°01'0 0.0
2018-Jun-22 09:31N 40°40' W 074°01'0 0.0
2018-Jun-22 09:01N 40°40' W 074°01'0 0.0
2018-Jun-22 08:31N 40°40' W 074°01'0 0.0
2018-Jun-22 08:01N 40°40' W 074°01'0 0.1
2018-Jun-22 07:31N 40°40' W 074°01'0 0.3
2018-Jun-22 07:01N 40°40' W 074°01'0 0.0
2018-Jun-22 06:30N 40°40' W 074°01'0 0.0
2018-Jun-22 06:01N 40°40' W 074°01'0 0.0
2018-Jun-22 05:30N 40°40' W 074°01'2 4.7
2018-Jun-22 05:00N 40°42' W 073°60'3 6.9
2018-Jun-22 04:31N 40°45' W 073°58'2 0.1
2018-Jun-21 02:16N 40°47' W 073°56'1 4.2
2018-Jun-21 01:55N 40°46' W 073°57'1 3.3
2018-Jun-21 01:30N 40°45' W 073°58'2 4.1
2018-Jun-21 01:00N 40°43' W 073°58'2 3.8
2018-Jun-21 00:30N 40°42' W 074°01'1 2.9
2018-Jun-21 00:00N 40°43' W 074°02'0 0.5
2018-Jun-20 23:30N 40°43' W 074°01'2 4.8
2018-Jun-20 23:00N 40°41' W 074°02'3 5.1
2018-Jun-20 22:30N 40°39' W 074°05'3 6.9
2018-Jun-20 22:00N 40°39' W 074°09'3 0.2
2018-Jun-20 07:34N 40°37' W 074°12'1 7.8
2018-Jun-20 07:26N 40°38' W 074°12'3 7.4
2018-Jun-20 07:00N 40°39' W 074°08'4 7.3
2018-Jun-20 06:30N 40°40' W 074°03'2 3.6
2018-Jun-20 06:00N 40°40' W 074°01'0 0.0
2018-Jun-20 05:30N 40°40' W 074°01'0 0.0
2018-Jun-20 05:00N 40°40' W 074°01'0 0.0
2018-Jun-20 04:30N 40°40' W 074°01'0 0.0
2018-Jun-20 04:00N 40°40' W 074°01'0 0.0
2018-Jun-20 03:30N 40°40' W 074°01'0 0.0
2018-Jun-20 03:00N 40°40' W 074°01'0 0.1
2018-Jun-20 02:30N 40°40' W 074°01'0 0.1
2018-Jun-20 02:00N 40°40' W 074°01'2 4.0
2018-Jun-20 01:30N 40°40' W 074°04'3 5.3
2018-Jun-20 00:53N 40°38' W 074°08'1 3.7
2018-Jun-20 00:30N 40°39' W 074°09'1 0.4
2018-Jun-19 21:28N 40°39' W 074°11'3 6.2
2018-Jun-19 20:59N 40°39' W 074°07'4 8.5
2018-Jun-19 20:31N 40°40' W 074°02'1 2.2
2018-Jun-19 20:00N 40°40' W 074°01'0 0.0
2018-Jun-19 19:30N 40°40' W 074°01'0 0.0
2018-Jun-19 19:00N 40°40' W 074°01'0 0.0
2018-Jun-19 18:30N 40°40' W 074°01'0 0.0
2018-Jun-19 18:00N 40°40' W 074°01'0 0.0
2018-Jun-19 17:30N 40°40' W 074°01'0 0.0
2018-Jun-19 17:00N 40°40' W 074°01'0 0.0
2018-Jun-19 16:30N 40°40' W 074°01'0 0.0
2018-Jun-19 16:00N 40°40' W 074°01'0 0.0
2018-Jun-19 15:30N 40°40' W 074°01'0 0.0
2018-Jun-19 15:00N 40°40' W 074°01'0 0.0
2018-Jun-19 14:30N 40°40' W 074°01'0 0.0
2018-Jun-19 14:00N 40°40' W 074°01'0 0.0
2018-Jun-19 13:30N 40°40' W 074°01'0 0.0
2018-Jun-19 13:00N 40°40' W 074°01'0 0.0
2018-Jun-19 12:30N 40°40' W 074°01'0 0.0
2018-Jun-19 12:00N 40°40' W 074°01'0 0.0
2018-Jun-19 11:30N 40°40' W 074°01'0 0.0
2018-Jun-19 11:00N 40°40' W 074°01'0 0.0
2018-Jun-19 10:30N 40°40' W 074°01'0 0.0
2018-Jun-19 10:00N 40°40' W 074°01'0 0.0
2018-Jun-19 09:30N 40°40' W 074°01'0 0.0
2018-Jun-19 09:00N 40°40' W 074°01'0 0.0
2018-Jun-19 08:30N 40°40' W 074°01'0 0.0
2018-Jun-19 08:00N 40°40' W 074°01'0 0.0
2018-Jun-19 07:30N 40°40' W 074°01'0 0.0
2018-Jun-19 07:00N 40°40' W 074°01'0 0.0
2018-Jun-19 06:30N 40°40' W 074°01'0 0.0
2018-Jun-19 06:00N 40°40' W 074°01'0 0.0
2018-Jun-19 05:29N 40°40' W 074°01'0 0.0
2018-Jun-19 05:00N 40°40' W 074°01'0 0.0
2018-Jun-19 04:30N 40°40' W 074°01'0 0.0
2018-Jun-19 04:00N 40°40' W 074°01'0 0.0
2018-Jun-19 03:29N 40°40' W 074°01'0 0.0
2018-Jun-19 02:59N 40°40' W 074°01'0 0.0
2018-Jun-19 02:29N 40°40' W 074°01'0 0.0
2018-Jun-19 01:59N 40°40' W 074°01'0 0.0
2018-Jun-19 01:29N 40°40' W 074°01'0 0.0
2018-Jun-19 00:59N 40°40' W 074°01'0 0.0
2018-Jun-19 00:29N 40°40' W 074°01'0 0.0
2018-Jun-18 23:59N 40°40' W 074°01'0 0.0
2018-Jun-18 23:23N 40°40' W 074°01'0 0.0
2018-Jun-18 22:59N 40°40' W 074°01'0 0.0
2018-Jun-18 22:29N 40°40' W 074°01'0 0.0
2018-Jun-18 21:59N 40°40' W 074°01'0 0.0
2018-Jun-18 21:29N 40°40' W 074°01'0 0.2
2018-Jun-18 20:58N 40°40' W 074°01'0 0.1
2018-Jun-18 20:28N 40°40' W 074°01'0 0.3
2018-Jun-18 20:00N 40°40' W 074°01'0 0.0
2018-Jun-18 19:30N 40°40' W 074°01'0 0.2
2018-Jun-18 18:59N 40°40' W 074°01'0 0.1
2018-Jun-18 18:29N 40°40' W 074°01'0 0.1
2018-Jun-18 17:58N 40°40' W 074°01'0 0.0
2018-Jun-18 17:28N 40°40' W 074°01'2 5.2
2018-Jun-18 17:00N 40°40' W 074°04'3 0.6
2018-Jun-18 11:43N 40°38' W 074°08'0 1.5
2018-Jun-18 11:29N 40°39' W 074°07'0 0.8
2018-Jun-18 11:00N 40°38' W 074°08'0 0.0
2018-Jun-18 10:30N 40°38' W 074°08'1 1.7
2018-Jun-18 10:00N 40°39' W 074°07'2 4.5
2018-Jun-18 09:30N 40°39' W 074°04'2 3.2
2018-Jun-18 09:00N 40°39' W 074°06'0 0.0
2018-Jun-17 16:18N 40°39' W 074°06'2 5.7
2018-Jun-17 16:00N 40°40' W 074°04'1 0.9
2018-Jun-17 14:41N 40°40' W 074°02'0 0.1
2018-Jun-17 14:29N 40°40' W 074°02'0 0.0
2018-Jun-17 13:59N 40°40' W 074°02'0 0.0
2018-Jun-17 13:29N 40°40' W 074°02'0 0.1
2018-Jun-17 12:59N 40°40' W 074°02'0 0.2
2018-Jun-17 12:28N 40°40' W 074°02'0 0.2
2018-Jun-17 11:58N 40°40' W 074°02'0 0.0
2018-Jun-17 11:28N 40°40' W 074°02'0 0.0
2018-Jun-17 10:58N 40°40' W 074°02'0 0.0
2018-Jun-17 10:28N 40°40' W 074°02'0 0.0
2018-Jun-17 09:58N 40°40' W 074°02'1 2.0
2018-Jun-17 09:30N 40°40' W 074°01'0 0.0
2018-Jun-17 09:00N 40°40' W 074°01'0 0.0
2018-Jun-17 08:30N 40°40' W 074°01'0 0.0
2018-Jun-17 08:00N 40°40' W 074°01'0 0.0
2018-Jun-17 07:30N 40°40' W 074°01'1 1.1
2018-Jun-17 07:00N 40°40' W 074°02'1 1.1
2018-Jun-17 06:30N 40°40' W 074°01'1 1.4
2018-Jun-17 06:00N 40°40' W 074°02'5 9.0
2018-Jun-17 05:30N 40°39' W 074°07'4 0.2
2018-Jun-16 10:18N 40°37' W 074°12'2 7.2
2018-Jun-16 10:00N 40°39' W 074°11'4 7.2
2018-Jun-16 09:29N 40°39' W 074°06'2 3.8
2018-Jun-16 08:59N 40°38' W 074°04'1 3.1
2018-Jun-16 08:30N 40°39' W 074°03'2 2.8
2018-Jun-16 07:58N 40°40' W 074°01'0 0.0
2018-Jun-16 07:28N 40°40' W 074°01'0 0.0
2018-Jun-16 06:58N 40°40' W 074°01'0 0.0
2018-Jun-16 06:28N 40°40' W 074°01'0 0.0
2018-Jun-16 05:58N 40°40' W 074°01'0 0.0
2018-Jun-16 05:25N 40°40' W 074°01'0 0.0
2018-Jun-16 04:58N 40°40' W 074°01'0 0.0
2018-Jun-16 04:28N 40°40' W 074°01'0 0.0
2018-Jun-16 03:58N 40°40' W 074°01'0 0.0
2018-Jun-16 03:28N 40°40' W 074°01'0 0.0
2018-Jun-16 03:01N 40°40' W 074°01'0 0.0
2018-Jun-16 02:31N 40°40' W 074°01'0 0.0
2018-Jun-16 02:00N 40°40' W 074°01'0 0.0
2018-Jun-16 01:30N 40°40' W 074°01'0 0.0
2018-Jun-16 01:00N 40°40' W 074°01'0 0.0
2018-Jun-16 00:30N 40°40' W 074°01'0 0.0
2018-Jun-16 00:00N 40°40' W 074°01'0 0.0
2018-Jun-15 23:30N 40°40' W 074°01'0 0.5
2018-Jun-15 23:00N 40°40' W 074°01'3 5.8
2018-Jun-15 22:31N 40°38' W 074°03'0 0.4
2018-Jun-15 22:00N 40°38' W 074°04'3 6.1
2018-Jun-15 21:30N 40°40' W 074°02'1 1.0
2018-Jun-15 20:59N 40°40' W 074°01'0 0.1
2018-Jun-15 20:29N 40°40' W 074°01'0 0.1
2018-Jun-15 19:58N 40°40' W 074°01'0 0.0
2018-Jun-15 19:28N 40°40' W 074°01'0 0.0
2018-Jun-15 18:58N 40°40' W 074°01'0 0.0
2018-Jun-15 18:28N 40°40' W 074°01'0 0.0
2018-Jun-15 17:58N 40°40' W 074°01'0 0.0
2018-Jun-15 17:28N 40°40' W 074°01'0 0.0
2018-Jun-15 16:58N 40°40' W 074°01'0 0.0
2018-Jun-15 16:31N 40°40' W 074°01'0 0.0
2018-Jun-15 16:00N 40°40' W 074°01'0 0.0
2018-Jun-15 15:30N 40°40' W 074°01'0 0.1
2018-Jun-15 15:00N 40°40' W 074°01'3 5.8
2018-Jun-15 14:30N 40°39' W 074°05'1 3.0
2018-Jun-15 14:00N 40°39' W 074°07'0 0.1
2018-Jun-15 13:30N 40°39' W 074°07'1 1.2
2018-Jun-15 12:39N 40°38' W 074°08'0 0.0
2018-Jun-15 12:30N 40°38' W 074°08'  

Dump ship's entire track history